sensor_id;sensor_type;location;lat;lon;timestamp;pressure;altitude;pressure_sealevel;temperature;humidity
18022;BME280;9136;48.822;7.966;2022-07-17T00:00:21;101055.81;;;17.21;75.71
18022;BME280;9136;48.822;7.966;2022-07-17T00:03:09;101047.34;;;17.12;80.63
18022;BME280;9136;48.822;7.966;2022-07-17T00:05:57;101032.56;;;17.07;75.25
18022;BME280;9136;48.822;7.966;2022-07-17T00:08:45;101062.50;;;17.29;72.02
18022;BME280;9136;48.822;7.966;2022-07-17T00:11:34;101033.22;;;17.12;79.06
18022;BME280;9136;48.822;7.966;2022-07-17T00:14:22;101059.63;;;17.15;73.10
18022;BME280;9136;48.822;7.966;2022-07-17T00:17:10;101047.50;;;17.09;73.18
18022;BME280;9136;48.822;7.966;2022-07-17T00:19:58;101037.81;;;17.08;76.80
18022;BME280;9136;48.822;7.966;2022-07-17T00:22:46;101035.88;;;17.12;73.30
18022;BME280;9136;48.822;7.966;2022-07-17T00:25:34;101039.22;;;17.15;72.85
18022;BME280;9136;48.822;7.966;2022-07-17T00:28:23;101057.69;;;17.19;72.69
18022;BME280;9136;48.822;7.966;2022-07-17T00:31:11;101037.22;;;17.02;74.97
18022;BME280;9136;48.822;7.966;2022-07-17T00:34:02;101047.78;;;17.03;72.45
18022;BME280;9136;48.822;7.966;2022-07-17T00:36:50;101046.91;;;17.03;74.28
18022;BME280;9136;48.822;7.966;2022-07-17T00:39:38;101053.34;;;16.97;72.78
18022;BME280;9136;48.822;7.966;2022-07-17T00:42:25;101035.06;;;16.91;71.66
18022;BME280;9136;48.822;7.966;2022-07-17T00:45:14;101044.75;;;16.92;77.50
18022;BME280;9136;48.822;7.966;2022-07-17T00:48:04;101055.00;;;16.81;73.88
18022;BME280;9136;48.822;7.966;2022-07-17T00:50:54;101042.16;;;16.72;76.66
18022;BME280;9136;48.822;7.966;2022-07-17T00:53:42;101065.63;;;16.81;74.27
18022;BME280;9136;48.822;7.966;2022-07-17T00:56:31;101061.50;;;16.74;79.27
18022;BME280;9136;48.822;7.966;2022-07-17T00:59:20;101055.00;;;16.60;77.86
18022;BME280;9136;48.822;7.966;2022-07-17T01:02:11;101027.03;;;16.33;78.66
18022;BME280;9136;48.822;7.966;2022-07-17T01:04:59;101051.16;;;16.47;76.96
18022;BME280;9136;48.822;7.966;2022-07-17T01:07:48;101030.75;;;16.29;81.71
18022;BME280;9136;48.822;7.966;2022-07-17T01:10:36;101051.22;;;16.46;79.30
18022;BME280;9136;48.822;7.966;2022-07-17T01:13:25;101040.16;;;16.36;81.75
18022;BME280;9136;48.822;7.966;2022-07-17T01:16:13;101041.88;;;16.37;81.28
18022;BME280;9136;48.822;7.966;2022-07-17T01:19:02;101049.28;;;16.29;82.34
18022;BME280;9136;48.822;7.966;2022-07-17T01:21:53;101054.41;;;16.34;82.73
18022;BME280;9136;48.822;7.966;2022-07-17T01:24:41;101026.50;;;16.05;82.66
18022;BME280;9136;48.822;7.966;2022-07-17T01:27:28;101048.09;;;16.16;78.53
18022;BME280;9136;48.822;7.966;2022-07-17T01:30:16;101049.59;;;16.23;82.91
18022;BME280;9136;48.822;7.966;2022-07-17T01:33:04;101049.91;;;16.36;73.41
18022;BME280;9136;48.822;7.966;2022-07-17T01:35:52;101026.69;;;16.20;74.84
18022;BME280;9136;48.822;7.966;2022-07-17T01:38:41;101035.66;;;16.18;76.56
18022;BME280;9136;48.822;7.966;2022-07-17T01:41:30;101050.22;;;16.28;79.11
18022;BME280;9136;48.822;7.966;2022-07-17T01:44:18;101045.31;;;16.19;73.28
18022;BME280;9136;48.822;7.966;2022-07-17T01:47:05;101024.66;;;16.07;77.91
18022;BME280;9136;48.822;7.966;2022-07-17T01:49:55;101053.09;;;16.23;79.82
18022;BME280;9136;48.822;7.966;2022-07-17T01:52:44;101057.94;;;16.14;74.09
18022;BME280;9136;48.822;7.966;2022-07-17T01:55:34;101033.97;;;15.95;74.50
18022;BME280;9136;48.822;7.966;2022-07-17T01:58:22;101040.00;;;15.98;74.92
18022;BME280;9136;48.822;7.966;2022-07-17T02:01:10;101060.16;;;16.02;73.80
18022;BME280;9136;48.822;7.966;2022-07-17T02:03:57;101043.03;;;15.89;75.83
18022;BME280;9136;48.822;7.966;2022-07-17T02:06:45;101053.56;;;15.91;75.37
18022;BME280;9136;48.822;7.966;2022-07-17T02:09:33;101047.63;;;15.86;76.64
18022;BME280;9136;48.822;7.966;2022-07-17T02:12:23;101038.91;;;15.82;75.66
18022;BME280;9136;48.822;7.966;2022-07-17T02:15:11;101029.03;;;15.65;77.26
18022;BME280;9136;48.822;7.966;2022-07-17T02:17:58;101038.13;;;15.80;76.99
18022;BME280;9136;48.822;7.966;2022-07-17T02:20:46;101020.16;;;15.66;76.74
18022;BME280;9136;48.822;7.966;2022-07-17T02:23:35;101013.53;;;15.55;76.13
18022;BME280;9136;48.822;7.966;2022-07-17T02:26:24;100998.81;;;15.48;75.87
18022;BME280;9136;48.822;7.966;2022-07-17T02:29:13;101004.84;;;15.51;76.06
18022;BME280;9136;48.822;7.966;2022-07-17T02:32:01;101005.69;;;15.52;76.02
18022;BME280;9136;48.822;7.966;2022-07-17T02:34:48;100999.69;;;15.48;74.78
18022;BME280;9136;48.822;7.966;2022-07-17T02:37:37;100981.28;;;15.45;76.50
18022;BME280;9136;48.822;7.966;2022-07-17T02:40:25;100997.16;;;15.45;75.15
18022;BME280;9136;48.822;7.966;2022-07-17T02:43:13;101001.47;;;15.48;74.04
18022;BME280;9136;48.822;7.966;2022-07-17T02:46:02;100992.84;;;15.42;73.66
18022;BME280;9136;48.822;7.966;2022-07-17T02:48:50;101017.22;;;15.51;73.25
18022;BME280;9136;48.822;7.966;2022-07-17T02:51:38;100997.34;;;15.40;74.04
18022;BME280;9136;48.822;7.966;2022-07-17T02:54:26;100990.38;;;15.38;74.17
18022;BME280;9136;48.822;7.966;2022-07-17T02:57:13;101023.28;;;15.54;74.66
18022;BME280;9136;48.822;7.966;2022-07-17T03:00:03;100984.47;;;15.31;74.20
18022;BME280;9136;48.822;7.966;2022-07-17T03:02:53;101003.41;;;15.42;77.36
18022;BME280;9136;48.822;7.966;2022-07-17T03:05:41;101015.88;;;15.40;74.27
18022;BME280;9136;48.822;7.966;2022-07-17T03:08:29;100993.56;;;15.24;74.71
18022;BME280;9136;48.822;7.966;2022-07-17T03:11:17;101002.94;;;15.33;76.35
18022;BME280;9136;48.822;7.966;2022-07-17T03:14:04;100975.47;;;15.13;77.51
18022;BME280;9136;48.822;7.966;2022-07-17T03:16:52;100993.53;;;15.26;79.22
18022;BME280;9136;48.822;7.966;2022-07-17T03:19:41;101008.28;;;15.31;76.32
18022;BME280;9136;48.822;7.966;2022-07-17T03:22:29;101001.13;;;15.33;76.36
18022;BME280;9136;48.822;7.966;2022-07-17T03:25:17;101003.00;;;15.31;79.63
18022;BME280;9136;48.822;7.966;2022-07-17T03:28:04;101000.53;;;15.27;75.40
18022;BME280;9136;48.822;7.966;2022-07-17T03:30:52;101004.72;;;15.32;79.07
18022;BME280;9136;48.822;7.966;2022-07-17T03:33:40;100986.69;;;15.20;75.47
18022;BME280;9136;48.822;7.966;2022-07-17T03:36:29;101009.41;;;15.26;74.45
18022;BME280;9136;48.822;7.966;2022-07-17T03:39:17;101003.25;;;15.25;75.00
18022;BME280;9136;48.822;7.966;2022-07-17T03:42:05;101008.28;;;15.31;84.47
18022;BME280;9136;48.822;7.966;2022-07-17T03:44:53;101004.91;;;15.28;80.89
18022;BME280;9136;48.822;7.966;2022-07-17T03:47:41;101008.41;;;15.28;74.90
18022;BME280;9136;48.822;7.966;2022-07-17T03:50:28;101013.84;;;15.25;75.42
18022;BME280;9136;48.822;7.966;2022-07-17T03:53:17;101000.13;;;15.15;74.11
18022;BME280;9136;48.822;7.966;2022-07-17T03:56:05;101012.22;;;15.21;78.16
18022;BME280;9136;48.822;7.966;2022-07-17T03:58:54;101006.94;;;15.21;78.11
18022;BME280;9136;48.822;7.966;2022-07-17T04:01:41;100992.25;;;15.12;74.42
18022;BME280;9136;48.822;7.966;2022-07-17T04:04:29;101000.03;;;15.17;74.18
18022;BME280;9136;48.822;7.966;2022-07-17T04:07:17;101020.16;;;15.21;74.94
18022;BME280;9136;48.822;7.966;2022-07-17T04:10:15;101002.75;;;15.15;75.47
18022;BME280;9136;48.822;7.966;2022-07-17T04:13:03;101008.72;;;15.21;76.46
18022;BME280;9136;48.822;7.966;2022-07-17T04:15:51;101016.53;;;15.24;77.16
18022;BME280;9136;48.822;7.966;2022-07-17T04:18:43;101015.06;;;15.16;80.50
18022;BME280;9136;48.822;7.966;2022-07-17T04:21:31;101034.03;;;15.28;80.47
18022;BME280;9136;48.822;7.966;2022-07-17T04:24:18;101026.16;;;15.26;76.40
18022;BME280;9136;48.822;7.966;2022-07-17T04:27:08;101020.00;;;15.26;78.84
18022;BME280;9136;48.822;7.966;2022-07-17T04:29:56;101024.47;;;15.24;82.61
18022;BME280;9136;48.822;7.966;2022-07-17T04:32:43;101027.38;;;15.17;90.20
18022;BME280;9136;48.822;7.966;2022-07-17T04:35:31;101018.69;;;14.91;92.76
18022;BME280;9136;48.822;7.966;2022-07-17T04:38:19;101026.50;;;14.94;93.34
18022;BME280;9136;48.822;7.966;2022-07-17T04:41:07;101026.63;;;14.91;88.69
18022;BME280;9136;48.822;7.966;2022-07-17T04:43:56;101024.06;;;14.89;92.25
18022;BME280;9136;48.822;7.966;2022-07-17T04:46:44;101044.75;;;15.01;98.31
18022;BME280;9136;48.822;7.966;2022-07-17T04:49:31;101034.44;;;14.94;99.51
18022;BME280;9136;48.822;7.966;2022-07-17T04:52:19;101037.78;;;14.99;96.08
18022;BME280;9136;48.822;7.966;2022-07-17T04:55:07;101038.53;;;15.02;96.60
18022;BME280;9136;48.822;7.966;2022-07-17T04:57:55;101016.91;;;14.91;100.00
18022;BME280;9136;48.822;7.966;2022-07-17T05:00:44;101037.78;;;14.99;100.00
18022;BME280;9136;48.822;7.966;2022-07-17T05:03:32;101053.19;;;15.11;93.94
18022;BME280;9136;48.822;7.966;2022-07-17T05:06:20;101052.28;;;15.12;89.52
18022;BME280;9136;48.822;7.966;2022-07-17T05:09:08;101043.97;;;15.21;100.00
18022;BME280;9136;48.822;7.966;2022-07-17T05:11:55;101031.16;;;15.10;95.27
18022;BME280;9136;48.822;7.966;2022-07-17T05:14:43;101029.25;;;15.14;88.09
18022;BME280;9136;48.822;7.966;2022-07-17T05:17:32;101064.88;;;15.51;89.58
18022;BME280;9136;48.822;7.966;2022-07-17T05:20:35;101053.50;;;15.49;93.80
18022;BME280;9136;48.822;7.966;2022-07-17T05:23:23;101028.75;;;15.50;88.27
18022;BME280;9136;48.822;7.966;2022-07-17T05:26:10;101064.03;;;15.73;89.43
18022;BME280;9136;48.822;7.966;2022-07-17T05:28:58;101057.97;;;15.70;88.34
18022;BME280;9136;48.822;7.966;2022-07-17T05:31:46;101066.47;;;15.78;81.83
18022;BME280;9136;48.822;7.966;2022-07-17T05:34:35;101046.38;;;15.72;88.22
18022;BME280;9136;48.822;7.966;2022-07-17T05:37:23;101055.25;;;15.93;81.90
18022;BME280;9136;48.822;7.966;2022-07-17T05:40:11;101072.09;;;15.92;87.05
18022;BME280;9136;48.822;7.966;2022-07-17T05:42:59;101054.44;;;15.91;84.24
18022;BME280;9136;48.822;7.966;2022-07-17T05:45:47;101060.03;;;16.06;87.98
18022;BME280;9136;48.822;7.966;2022-07-17T05:48:34;101069.19;;;16.19;89.51
18022;BME280;9136;48.822;7.966;2022-07-17T05:51:23;101048.03;;;16.17;86.64
18022;BME280;9136;48.822;7.966;2022-07-17T05:54:11;101059.41;;;16.41;84.58
18022;BME280;9136;48.822;7.966;2022-07-17T05:56:59;101069.13;;;16.61;77.60
18022;BME280;9136;48.822;7.966;2022-07-17T05:59:47;101073.22;;;16.70;82.99
18022;BME280;9136;48.822;7.966;2022-07-17T06:02:35;101072.44;;;16.86;77.39
18022;BME280;9136;48.822;7.966;2022-07-17T06:05:23;101047.03;;;16.81;70.68
18022;BME280;9136;48.822;7.966;2022-07-17T06:08:13;101063.19;;;16.95;75.98
18022;BME280;9136;48.822;7.966;2022-07-17T06:11:01;101056.25;;;16.93;72.59
18022;BME280;9136;48.822;7.966;2022-07-17T06:13:49;101092.25;;;17.17;70.84
18022;BME280;9136;48.822;7.966;2022-07-17T06:16:36;101068.59;;;17.12;77.04
18022;BME280;9136;48.822;7.966;2022-07-17T06:19:24;101070.31;;;17.13;69.80
18022;BME280;9136;48.822;7.966;2022-07-17T06:22:12;101079.22;;;17.31;67.76
18022;BME280;9136;48.822;7.966;2022-07-17T06:25:02;101071.84;;;17.38;73.90
18022;BME280;9136;48.822;7.966;2022-07-17T06:27:50;101079.13;;;17.52;69.86
18022;BME280;9136;48.822;7.966;2022-07-17T06:30:38;101073.59;;;17.56;68.55
18022;BME280;9136;48.822;7.966;2022-07-17T06:33:26;101088.69;;;17.74;68.26
18022;BME280;9136;48.822;7.966;2022-07-17T06:36:13;101089.63;;;17.73;66.37
18022;BME280;9136;48.822;7.966;2022-07-17T06:39:01;101086.00;;;17.74;66.93
18022;BME280;9136;48.822;7.966;2022-07-17T06:41:50;101075.53;;;17.71;67.42
18022;BME280;9136;48.822;7.966;2022-07-17T06:44:38;101094.47;;;17.83;71.52
18022;BME280;9136;48.822;7.966;2022-07-17T06:47:26;101068.22;;;17.77;70.24
18022;BME280;9136;48.822;7.966;2022-07-17T06:50:13;101069.72;;;17.99;65.35
18022;BME280;9136;48.822;7.966;2022-07-17T06:53:01;101072.34;;;18.18;62.67
18022;BME280;9136;48.822;7.966;2022-07-17T06:55:49;101072.94;;;18.23;65.83
18022;BME280;9136;48.822;7.966;2022-07-17T06:58:38;101075.47;;;18.44;61.14
18022;BME280;9136;48.822;7.966;2022-07-17T07:01:26;101098.38;;;18.64;60.62
18022;BME280;9136;48.822;7.966;2022-07-17T07:04:14;101097.00;;;18.74;61.09
18022;BME280;9136;48.822;7.966;2022-07-17T07:07:02;101107.22;;;18.81;57.68
18022;BME280;9136;48.822;7.966;2022-07-17T07:09:49;101093.13;;;18.79;58.21
18022;BME280;9136;48.822;7.966;2022-07-17T07:12:37;101096.53;;;18.99;61.00
18022;BME280;9136;48.822;7.966;2022-07-17T07:15:26;101086.63;;;19.01;60.87
18022;BME280;9136;48.822;7.966;2022-07-17T07:18:14;101103.03;;;19.26;60.78
18022;BME280;9136;48.822;7.966;2022-07-17T07:21:02;101122.03;;;19.36;58.22
18022;BME280;9136;48.822;7.966;2022-07-17T07:23:53;101108.16;;;19.29;57.68
18022;BME280;9136;48.822;7.966;2022-07-17T07:26:41;101101.84;;;19.32;56.75
18022;BME280;9136;48.822;7.966;2022-07-17T07:29:29;101091.88;;;19.35;62.55
18022;BME280;9136;48.822;7.966;2022-07-17T07:32:18;101083.78;;;19.37;57.43
18022;BME280;9136;48.822;7.966;2022-07-17T07:35:07;101078.97;;;19.43;55.96
18022;BME280;9136;48.822;7.966;2022-07-17T07:37:55;101093.97;;;19.62;57.59
18022;BME280;9136;48.822;7.966;2022-07-17T07:40:43;101114.50;;;19.91;59.74
18022;BME280;9136;48.822;7.966;2022-07-17T07:43:30;101096.03;;;19.88;58.15
18022;BME280;9136;48.822;7.966;2022-07-17T07:46:18;101100.78;;;20.13;55.36
18022;BME280;9136;48.822;7.966;2022-07-17T07:49:07;101099.38;;;20.22;55.12
18022;BME280;9136;48.822;7.966;2022-07-17T07:51:55;101108.81;;;20.43;55.49
18022;BME280;9136;48.822;7.966;2022-07-17T07:54:43;101098.72;;;20.48;53.46
18022;BME280;9136;48.822;7.966;2022-07-17T07:57:30;101110.41;;;20.76;53.99
18022;BME280;9136;48.822;7.966;2022-07-17T08:00:19;101101.06;;;20.69;59.58
18022;BME280;9136;48.822;7.966;2022-07-17T08:03:07;101119.28;;;20.91;52.59
18022;BME280;9136;48.822;7.966;2022-07-17T08:05:58;101123.78;;;21.04;52.27
18022;BME280;9136;48.822;7.966;2022-07-17T08:08:51;101123.13;;;21.15;55.03
18022;BME280;9136;48.822;7.966;2022-07-17T08:11:51;101109.75;;;21.15;53.75
18022;BME280;9136;48.822;7.966;2022-07-17T08:14:58;101096.59;;;20.98;50.70
18022;BME280;9136;48.822;7.966;2022-07-17T08:17:52;101109.09;;;21.26;53.01
18022;BME280;9136;48.822;7.966;2022-07-17T08:20:42;101098.41;;;21.26;52.07
18022;BME280;9136;48.822;7.966;2022-07-17T08:23:38;101114.84;;;21.34;51.49
18022;BME280;9136;48.822;7.966;2022-07-17T08:26:55;101085.94;;;21.26;51.71
18022;BME280;9136;48.822;7.966;2022-07-17T08:29:58;101092.84;;;21.57;50.17
18022;BME280;9136;48.822;7.966;2022-07-17T08:32:56;101091.06;;;21.70;47.71
18022;BME280;9136;48.822;7.966;2022-07-17T08:35:47;101110.47;;;21.74;50.41
18022;BME280;9136;48.822;7.966;2022-07-17T08:38:55;101112.31;;;21.86;48.46
18022;BME280;9136;48.822;7.966;2022-07-17T08:41:44;101110.00;;;21.94;48.29
18022;BME280;9136;48.822;7.966;2022-07-17T08:44:32;101095.03;;;21.92;46.73
18022;BME280;9136;48.822;7.966;2022-07-17T08:47:20;101100.22;;;22.08;48.66
18022;BME280;9136;48.822;7.966;2022-07-17T08:50:09;101088.97;;;22.30;47.07
18022;BME280;9136;48.822;7.966;2022-07-17T08:52:58;101090.75;;;22.29;47.23
18022;BME280;9136;48.822;7.966;2022-07-17T08:55:47;101098.28;;;22.37;50.48
18022;BME280;9136;48.822;7.966;2022-07-17T08:58:35;101081.69;;;22.44;47.50
18022;BME280;9136;48.822;7.966;2022-07-17T09:01:24;101076.44;;;22.43;47.05
18022;BME280;9136;48.822;7.966;2022-07-17T09:04:12;101095.31;;;22.67;46.53
18022;BME280;9136;48.822;7.966;2022-07-17T09:07:01;101075.72;;;22.79;50.53
18022;BME280;9136;48.822;7.966;2022-07-17T09:09:50;101103.56;;;23.14;50.36
18022;BME280;9136;48.822;7.966;2022-07-17T09:12:39;101088.56;;;23.12;46.13
18022;BME280;9136;48.822;7.966;2022-07-17T09:15:27;101101.56;;;23.18;45.96
18022;BME280;9136;48.822;7.966;2022-07-17T09:18:15;101080.06;;;23.31;49.38
18022;BME280;9136;48.822;7.966;2022-07-17T09:21:05;101069.06;;;23.59;46.40
18022;BME280;9136;48.822;7.966;2022-07-17T09:23:59;101074.66;;;23.80;44.28
18022;BME280;9136;48.822;7.966;2022-07-17T09:26:47;101077.75;;;23.87;43.88
18022;BME280;9136;48.822;7.966;2022-07-17T09:29:50;101080.66;;;24.08;47.30
18022;BME280;9136;48.822;7.966;2022-07-17T09:32:41;101077.06;;;23.96;44.78
18022;BME280;9136;48.822;7.966;2022-07-17T09:35:29;101093.63;;;24.14;45.14
18022;BME280;9136;48.822;7.966;2022-07-17T09:38:29;101094.94;;;24.32;42.88
18022;BME280;9136;48.822;7.966;2022-07-17T09:41:18;101077.00;;;24.33;45.67
18022;BME280;9136;48.822;7.966;2022-07-17T09:44:06;101070.94;;;24.53;47.30
18022;BME280;9136;48.822;7.966;2022-07-17T09:46:56;101072.28;;;24.70;43.21
18022;BME280;9136;48.822;7.966;2022-07-17T09:49:44;101095.53;;;24.93;41.32
18022;BME280;9136;48.822;7.966;2022-07-17T09:52:33;101089.41;;;24.80;42.00
18022;BME280;9136;48.822;7.966;2022-07-17T09:55:22;101076.72;;;24.82;43.46
18022;BME280;9136;48.822;7.966;2022-07-17T09:58:15;101071.22;;;24.83;41.25
18022;BME280;9136;48.822;7.966;2022-07-17T10:01:06;101067.94;;;24.91;41.97
18022;BME280;9136;48.822;7.966;2022-07-17T10:03:55;101080.66;;;25.00;43.43
18022;BME280;9136;48.822;7.966;2022-07-17T10:06:43;101094.13;;;25.11;43.33
18022;BME280;9136;48.822;7.966;2022-07-17T10:09:32;101077.97;;;25.23;43.01
18022;BME280;9136;48.822;7.966;2022-07-17T10:12:20;101076.59;;;25.28;42.01
18022;BME280;9136;48.822;7.966;2022-07-17T10:15:09;101077.69;;;25.37;41.58
18022;BME280;9136;48.822;7.966;2022-07-17T10:18:05;101053.59;;;25.47;42.75
18022;BME280;9136;48.822;7.966;2022-07-17T10:21:06;101045.38;;;25.59;40.07
18022;BME280;9136;48.822;7.966;2022-07-17T10:24:08;101055.66;;;25.54;41.84
18022;BME280;9136;48.822;7.966;2022-07-17T10:26:57;101048.97;;;25.37;37.90
18022;BME280;9136;48.822;7.966;2022-07-17T10:29:45;101040.22;;;25.67;43.16
18022;BME280;9136;48.822;7.966;2022-07-17T10:32:33;101050.03;;;26.01;42.05
18022;BME280;9136;48.822;7.966;2022-07-17T10:35:21;101063.13;;;26.26;41.58
18022;BME280;9136;48.822;7.966;2022-07-17T10:38:12;101068.59;;;26.36;38.67
18022;BME280;9136;48.822;7.966;2022-07-17T10:41:02;101055.97;;;26.36;37.65
18022;BME280;9136;48.822;7.966;2022-07-17T10:43:50;101048.13;;;26.44;36.82
18022;BME280;9136;48.822;7.966;2022-07-17T10:46:38;101059.13;;;26.83;42.01
18022;BME280;9136;48.822;7.966;2022-07-17T10:49:51;101045.16;;;26.78;39.74
18022;BME280;9136;48.822;7.966;2022-07-17T10:52:40;101075.44;;;26.91;34.65
18022;BME280;9136;48.822;7.966;2022-07-17T10:55:30;101057.78;;;26.77;33.78
18022;BME280;9136;48.822;7.966;2022-07-17T10:58:21;101058.31;;;26.71;34.32
18022;BME280;9136;48.822;7.966;2022-07-17T11:01:10;101043.28;;;26.99;40.22
18022;BME280;9136;48.822;7.966;2022-07-17T11:04:00;101066.41;;;27.23;34.82
18022;BME280;9136;48.822;7.966;2022-07-17T11:06:51;101038.09;;;27.67;37.37
18022;BME280;9136;48.822;7.966;2022-07-17T11:09:47;101061.31;;;29.21;36.09
18022;BME280;9136;48.822;7.966;2022-07-17T11:12:36;101045.53;;;30.59;33.25
18022;BME280;9136;48.822;7.966;2022-07-17T11:15:24;101052.75;;;31.95;26.01
18022;BME280;9136;48.822;7.966;2022-07-17T11:18:14;101042.19;;;33.21;28.00
18022;BME280;9136;48.822;7.966;2022-07-17T11:21:04;101038.16;;;34.39;28.57
18022;BME280;9136;48.822;7.966;2022-07-17T11:23:54;101054.56;;;35.13;22.23
18022;BME280;9136;48.822;7.966;2022-07-17T11:26:43;101045.66;;;35.41;22.51
18022;BME280;9136;48.822;7.966;2022-07-17T11:29:37;101061.34;;;35.90;22.01
18022;BME280;9136;48.822;7.966;2022-07-17T11:32:32;101058.03;;;36.16;24.80
18022;BME280;9136;48.822;7.966;2022-07-17T11:35:21;101060.63;;;36.24;21.71
18022;BME280;9136;48.822;7.966;2022-07-17T11:38:09;101044.91;;;36.32;20.53
18022;BME280;9136;48.822;7.966;2022-07-17T11:40:58;101060.03;;;35.64;21.92
18022;BME280;9136;48.822;7.966;2022-07-17T11:43:46;101055.06;;;36.66;22.30
18022;BME280;9136;48.822;7.966;2022-07-17T11:46:36;101044.59;;;37.11;19.69
18022;BME280;9136;48.822;7.966;2022-07-17T11:49:24;101062.09;;;36.76;22.26
18022;BME280;9136;48.822;7.966;2022-07-17T11:52:14;101052.22;;;36.81;23.26
18022;BME280;9136;48.822;7.966;2022-07-17T11:55:02;101031.69;;;36.64;21.64
18022;BME280;9136;48.822;7.966;2022-07-17T11:57:50;101042.88;;;37.04;20.04
18022;BME280;9136;48.822;7.966;2022-07-17T12:00:38;101041.88;;;37.11;20.41
18022;BME280;9136;48.822;7.966;2022-07-17T12:03:27;101046.41;;;38.33;20.63
18022;BME280;9136;48.822;7.966;2022-07-17T12:06:24;101039.38;;;36.26;19.80
18022;BME280;9136;48.822;7.966;2022-07-17T12:09:12;101049.47;;;37.09;22.21
18022;BME280;9136;48.822;7.966;2022-07-17T12:12:01;101022.31;;;37.95;23.67
18022;BME280;9136;48.822;7.966;2022-07-17T12:14:50;101045.78;;;38.24;20.53
18022;BME280;9136;48.822;7.966;2022-07-17T12:17:39;101027.16;;;37.87;19.63
18022;BME280;9136;48.822;7.966;2022-07-17T12:20:40;101029.06;;;37.86;21.00
18022;BME280;9136;48.822;7.966;2022-07-17T12:23:29;101026.34;;;38.13;21.44
18022;BME280;9136;48.822;7.966;2022-07-17T12:26:18;101024.41;;;38.46;21.71
18022;BME280;9136;48.822;7.966;2022-07-17T12:29:06;101032.81;;;39.36;18.04
18022;BME280;9136;48.822;7.966;2022-07-17T12:32:05;101015.34;;;38.13;20.71
18022;BME280;9136;48.822;7.966;2022-07-17T12:34:54;101025.25;;;38.20;15.87
18022;BME280;9136;48.822;7.966;2022-07-17T12:37:43;101036.88;;;38.49;18.08
18022;BME280;9136;48.822;7.966;2022-07-17T12:40:31;101034.31;;;38.60;15.12
18022;BME280;9136;48.822;7.966;2022-07-17T12:43:18;101023.56;;;37.25;17.18
18022;BME280;9136;48.822;7.966;2022-07-17T12:46:06;101031.69;;;37.53;17.32
18022;BME280;9136;48.822;7.966;2022-07-17T12:48:54;101018.94;;;38.00;17.27
18022;BME280;9136;48.822;7.966;2022-07-17T12:51:42;101013.88;;;37.97;16.40
18022;BME280;9136;48.822;7.966;2022-07-17T12:54:31;101011.28;;;37.01;18.84
18022;BME280;9136;48.822;7.966;2022-07-17T12:57:19;101014.59;;;37.38;17.35
18022;BME280;9136;48.822;7.966;2022-07-17T13:00:08;101017.66;;;37.89;19.84
18022;BME280;9136;48.822;7.966;2022-07-17T13:02:56;101014.50;;;38.38;17.19
18022;BME280;9136;48.822;7.966;2022-07-17T13:05:44;101006.03;;;37.80;15.35
18022;BME280;9136;48.822;7.966;2022-07-17T13:08:31;100998.63;;;37.55;17.43
18022;BME280;9136;48.822;7.966;2022-07-17T13:11:21;100997.00;;;37.19;16.30
18022;BME280;9136;48.822;7.966;2022-07-17T13:14:09;101012.97;;;37.70;16.89
18022;BME280;9136;48.822;7.966;2022-07-17T13:16:58;101008.94;;;38.78;15.13
18022;BME280;9136;48.822;7.966;2022-07-17T13:19:46;101001.00;;;38.37;15.08
18022;BME280;9136;48.822;7.966;2022-07-17T13:22:35;100999.50;;;38.08;16.57
18022;BME280;9136;48.822;7.966;2022-07-17T13:25:23;100985.53;;;38.62;17.49
18022;BME280;9136;48.822;7.966;2022-07-17T13:28:12;100993.19;;;39.18;16.71
18022;BME280;9136;48.822;7.966;2022-07-17T13:30:59;100981.69;;;38.77;17.16
18022;BME280;9136;48.822;7.966;2022-07-17T13:33:48;100996.94;;;39.24;18.75
18022;BME280;9136;48.822;7.966;2022-07-17T13:36:36;100989.47;;;39.38;16.27
18022;BME280;9136;48.822;7.966;2022-07-17T13:39:23;100998.63;;;39.25;14.76
18022;BME280;9136;48.822;7.966;2022-07-17T13:42:12;100994.59;;;37.64;17.46
18022;BME280;9136;48.822;7.966;2022-07-17T13:45:02;100995.31;;;37.86;17.30
18022;BME280;9136;48.822;7.966;2022-07-17T13:47:50;100979.88;;;39.09;18.48
18022;BME280;9136;48.822;7.966;2022-07-17T13:50:39;100997.59;;;39.19;15.35
18022;BME280;9136;48.822;7.966;2022-07-17T13:53:27;100994.59;;;38.70;15.14
18022;BME280;9136;48.822;7.966;2022-07-17T13:56:15;100993.41;;;38.32;15.01
18022;BME280;9136;48.822;7.966;2022-07-17T13:59:04;100979.91;;;39.02;16.99
18022;BME280;9136;48.822;7.966;2022-07-17T14:01:53;100990.66;;;39.10;16.59
18022;BME280;9136;48.822;7.966;2022-07-17T14:04:41;100990.59;;;38.72;14.85
18022;BME280;9136;48.822;7.966;2022-07-17T14:07:29;100994.22;;;38.20;17.38
18022;BME280;9136;48.822;7.966;2022-07-17T14:10:17;100977.69;;;38.59;16.90
18022;BME280;9136;48.822;7.966;2022-07-17T14:13:04;100974.22;;;39.35;18.28
18022;BME280;9136;48.822;7.966;2022-07-17T14:15:52;100976.56;;;39.70;17.44
18022;BME280;9136;48.822;7.966;2022-07-17T14:18:41;100958.72;;;39.79;15.51
18022;BME280;9136;48.822;7.966;2022-07-17T14:21:43;100970.44;;;38.91;15.93
18022;BME280;9136;48.822;7.966;2022-07-17T14:24:31;100971.25;;;39.37;16.88
18022;BME280;9136;48.822;7.966;2022-07-17T14:27:19;100969.31;;;39.06;14.30
18022;BME280;9136;48.822;7.966;2022-07-17T14:30:08;100946.78;;;38.90;17.53
18022;BME280;9136;48.822;7.966;2022-07-17T14:32:57;100956.69;;;38.91;17.01
18022;BME280;9136;48.822;7.966;2022-07-17T14:35:46;100956.25;;;39.71;16.84
18022;BME280;9136;48.822;7.966;2022-07-17T14:38:33;100969.16;;;40.64;14.85
18022;BME280;9136;48.822;7.966;2022-07-17T14:41:21;100968.56;;;41.28;15.64
18022;BME280;9136;48.822;7.966;2022-07-17T14:44:09;100955.75;;;40.67;15.73
18022;BME280;9136;48.822;7.966;2022-07-17T14:46:58;100940.44;;;39.85;16.60
18022;BME280;9136;48.822;7.966;2022-07-17T14:49:46;100959.84;;;40.40;16.09
18022;BME280;9136;48.822;7.966;2022-07-17T14:52:35;100956.53;;;39.88;15.07
18022;BME280;9136;48.822;7.966;2022-07-17T14:55:23;100945.00;;;40.41;14.83